Time;durP1;ratioP1;P1;durP2;ratioP2;P2;SDS_P1;SDS_P2;PMS_P1;PMS_P2;Temp;Humidity;BMP_temperature;BMP_pressure;BME280_temperature;BME280_humidity;BME280_pressure;Samples;Min_cycle;Max_cycle;Signal;HPM_P1;HPM_P2
2024/02/20 00:00:11;;;;;;;1.70;1.60;;;;;;;19.41;53.84;98245.25;5050353;28;20293;-25
2024/02/20 00:02:44;;;;;;;1.60;1.50;;;;;;;19.42;53.97;98248.69;5047591;28;20738;-25
2024/02/20 00:05:11;;;;;;;1.90;1.70;;;;;;;19.43;53.98;98243.66;5050371;28;20642;-25
2024/02/20 00:07:37;;;;;;;2.10;1.57;;;;;;;19.44;53.73;98244.50;5051984;28;20210;-26
2024/02/20 00:10:06;;;;;;;1.70;1.60;;;;;;;19.44;53.98;98245.41;5049844;28;20292;-25
2024/02/20 00:12:33;;;;;;;1.50;1.40;;;;;;;19.44;53.95;98244.50;5047953;28;20201;-25
2024/02/20 00:15:01;;;;;;;1.87;1.67;;;;;;;19.42;54.01;98239.34;5044230;28;20432;-25
2024/02/20 00:17:28;;;;;;;1.60;1.50;;;;;;;19.43;54.02;98245.31;5044908;28;20261;-26
2024/02/20 00:19:55;;;;;;;2.33;1.80;;;;;;;19.42;54.00;98249.53;5044484;28;20247;-25
2024/02/20 00:22:22;;;;;;;1.80;1.60;;;;;;;19.42;53.85;98249.53;5046080;28;20711;-25
2024/02/20 00:24:48;;;;;;;1.70;1.50;;;;;;;19.42;53.79;98251.22;5045443;28;20601;-25
2024/02/20 00:27:15;;;;;;;1.50;1.40;;;;;;;19.41;54.06;98250.34;5047557;28;20204;-25
2024/02/20 00:29:42;;;;;;;1.87;1.70;;;;;;;19.35;53.85;98234.75;5047728;28;20204;-25
2024/02/20 00:32:09;;;;;;;2.00;1.67;;;;;;;19.40;53.70;98238.41;5051443;28;20258;-25
2024/02/20 00:34:35;;;;;;;1.70;1.60;;;;;;;19.42;53.69;98234.25;5041425;28;20279;-27
2024/02/20 00:37:02;;;;;;;1.90;1.30;;;;;;;19.42;54.02;98231.69;5040455;28;20201;-25
2024/02/20 00:39:29;;;;;;;2.00;1.60;;;;;;;19.42;54.05;98233.41;5049666;28;20266;-25
2024/02/20 00:41:56;;;;;;;1.70;1.60;;;;;;;19.42;53.83;98236.78;5051511;28;20304;-25
2024/02/20 00:44:22;;;;;;;1.60;1.50;;;;;;;19.43;53.84;98240.22;5039030;28;20225;-25
2024/02/20 00:46:49;;;;;;;1.60;1.50;;;;;;;19.43;53.79;98232.56;5045431;28;20395;-25
2024/02/20 00:49:16;;;;;;;2.03;1.83;;;;;;;19.44;53.85;98236.88;5049706;28;20197;-30
2024/02/20 00:51:44;;;;;;;1.50;1.40;;;;;;;19.44;54.03;98232.66;5050164;28;20212;-26
2024/02/20 00:54:11;;;;;;;1.60;1.50;;;;;;;19.45;53.88;98225.91;5042357;28;20389;-26
2024/02/20 00:56:37;;;;;;;1.97;1.77;;;;;;;19.44;53.82;98222.47;5048343;28;20216;-27
2024/02/20 00:59:04;;;;;;;1.60;1.40;;;;;;;19.43;53.84;98223.28;5048462;28;20201;-27
2024/02/20 01:01:31;;;;;;;1.60;1.50;;;;;;;19.43;53.91;98222.38;5038199;28;20236;-25
2024/02/20 01:03:58;;;;;;;1.80;1.70;;;;;;;19.42;53.78;98229.16;5048832;28;20242;-25
2024/02/20 01:06:24;;;;;;;2.07;1.87;;;;;;;19.43;53.92;98222.38;5046671;28;20231;-25
2024/02/20 01:08:52;;;;;;;1.53;1.43;;;;;;;19.43;53.85;98232.56;5039727;28;20250;-25
2024/02/20 01:11:18;;;;;;;1.60;1.50;;;;;;;19.42;54.05;98224.03;5048955;28;20193;-25
2024/02/20 01:13:47;;;;;;;2.03;1.60;;;;;;;19.43;54.15;98235.13;5044318;28;20268;-25
2024/02/20 01:16:13;;;;;;;1.60;1.50;;;;;;;19.40;53.65;98225.66;5051182;28;20228;-25
2024/02/20 01:18:41;;;;;;;1.50;1.40;;;;;;;19.43;54.09;98232.56;5043632;28;20211;-25
2024/02/20 01:21:09;;;;;;;1.70;1.40;;;;;;;19.41;53.93;98237.59;5043230;28;20691;-25
2024/02/20 01:23:37;;;;;;;1.60;1.50;;;;;;;19.41;53.94;98232.50;5035145;28;20193;-25
2024/02/20 01:26:04;;;;;;;1.50;1.40;;;;;;;19.42;54.08;98238.50;5043502;28;20208;-25
2024/02/20 01:28:30;;;;;;;2.73;1.93;;;;;;;19.42;53.91;98228.28;5047194;28;20196;-25
2024/02/20 01:30:57;;;;;;;1.43;1.33;;;;;;;19.43;53.96;98224.94;5045408;28;20257;-25
2024/02/20 01:33:23;;;;;;;1.40;1.30;;;;;;;19.44;54.28;98231.78;5051301;28;20690;-25
2024/02/20 01:35:50;;;;;;;2.10;1.67;;;;;;;19.45;54.03;98238.63;5044285;28;20252;-25
2024/02/20 01:38:17;;;;;;;1.30;1.20;;;;;;;19.43;54.12;98225.81;5046221;28;20264;-25
2024/02/20 01:40:43;;;;;;;2.50;1.50;;;;;;;19.43;53.95;98219.84;5038913;28;20695;-31
2024/02/20 01:43:10;;;;;;;2.43;1.83;;;;;;;19.42;54.11;98221.50;5040510;28;20224;-25
2024/02/20 01:45:36;;;;;;;1.47;1.37;;;;;;;19.43;54.22;98230.03;5040454;28;20229;-25
2024/02/20 01:48:03;;;;;;;2.30;1.77;;;;;;;19.39;53.95;98210.31;5051800;28;20274;-25
2024/02/20 01:50:33;;;;;;;1.50;1.40;;;;;;;19.42;53.84;98220.66;5044606;28;20208;-25
2024/02/20 01:53:03;;;;;;;1.80;1.67;;;;;;;19.42;53.94;98211.31;5043926;28;20227;-25
2024/02/20 01:55:30;;;;;;;1.50;1.40;;;;;;;19.43;53.92;98212.19;5046152;28;20213;-25
2024/02/20 01:57:57;;;;;;;1.70;1.60;;;;;;;19.41;53.51;98199.38;5052930;28;20240;-25
2024/02/20 02:00:24;;;;;;;2.40;1.60;;;;;;;19.43;54.04;98204.53;5053707;28;20207;-25
2024/02/20 02:02:51;;;;;;;2.03;1.53;;;;;;;19.40;53.88;98205.28;5045643;28;20246;-27
2024/02/20 02:05:19;;;;;;;1.50;1.40;;;;;;;19.41;54.08;98209.56;5046325;28;20688;-25
2024/02/20 02:07:47;;;;;;;1.50;1.40;;;;;;;19.41;53.82;98196.81;5053916;28;20209;-25
2024/02/20 02:10:14;;;;;;;1.70;1.60;;;;;;;19.41;54.10;98204.47;5053546;28;20648;-25
2024/02/20 02:12:41;;;;;;;2.20;1.60;;;;;;;19.42;53.96;98201.09;5047173;28;20212;-26
2024/02/20 02:15:08;;;;;;;1.70;1.60;;;;;;;19.43;53.81;98194.34;5047137;28;20221;-25
2024/02/20 02:17:34;;;;;;;1.77;1.67;;;;;;;19.45;54.15;98200.41;5050674;28;20247;-25
2024/02/20 02:20:02;;;;;;;1.47;1.37;;;;;;;19.44;53.95;98202.06;5053708;28;20201;-25
2024/02/20 02:22:28;;;;;;;1.40;1.30;;;;;;;19.44;54.32;98199.50;5043542;28;20679;-25
2024/02/20 02:24:55;;;;;;;1.50;1.40;;;;;;;19.38;53.99;98186.47;5045563;28;20637;-33
2024/02/20 02:27:21;;;;;;;1.57;1.47;;;;;;;19.45;54.05;98197.84;5046252;28;20201;-26
2024/02/20 02:29:48;;;;;;;1.63;1.47;;;;;;;19.44;54.10;98196.97;5047926;28;20204;-25
2024/02/20 02:32:15;;;;;;;1.73;1.40;;;;;;;19.47;53.97;98203.88;5042202;28;20565;-25
2024/02/20 02:34:42;;;;;;;1.60;1.47;;;;;;;19.47;53.94;98201.31;5051831;28;20225;-26
2024/02/20 02:37:08;;;;;;;1.50;1.40;;;;;;;19.47;53.87;98204.75;5054004;28;20670;-25
2024/02/20 02:39:35;;;;;;;1.60;1.50;;;;;;;19.49;54.41;98212.47;5047168;28;20197;-25
2024/02/20 02:42:01;;;;;;;1.90;1.67;;;;;;;19.50;54.24;98211.66;5048055;28;20213;-25
2024/02/20 02:44:28;;;;;;;1.50;1.40;;;;;;;19.48;53.98;98209.03;5053207;28;20216;-25
2024/02/20 02:46:55;;;;;;;2.00;1.50;;;;;;;19.50;53.72;98209.13;5047446;28;20198;-25
2024/02/20 02:49:21;;;;;;;1.67;1.40;;;;;;;19.50;53.87;98209.13;5049221;28;20197;-25
2024/02/20 02:51:48;;;;;;;1.50;1.40;;;;;;;19.48;53.97;98216.69;5050609;28;20224;-33
2024/02/20 02:54:15;;;;;;;1.60;1.50;;;;;;;19.47;53.78;98212.41;5051899;28;20235;-26
2024/02/20 02:56:41;;;;;;;1.57;1.47;;;;;;;19.47;53.97;98214.06;5051382;28;20197;-25
2024/02/20 02:59:09;;;;;;;1.77;1.57;;;;;;;19.46;53.92;98208.13;5045282;28;20201;-25
2024/02/20 03:01:36;;;;;;;1.57;1.47;;;;;;;19.47;53.96;98219.16;5038714;28;20727;-25
2024/02/20 03:04:04;;;;;;;1.50;1.40;;;;;;;19.48;54.08;98213.28;5052668;28;20220;-27
2024/02/20 03:06:36;;;;;;;1.50;1.40;;;;;;;19.46;53.67;98220.88;5052652;28;20203;-25
2024/02/20 03:09:10;;;;;;;1.97;1.40;;;;;;;19.46;53.89;98215.78;5041774;28;20216;-25
2024/02/20 03:11:37;;;;;;;2.13;1.60;;;;;;;19.47;54.06;98216.63;5047179;28;20200;-30
2024/02/20 03:14:03;;;;;;;1.80;1.60;;;;;;;19.47;54.09;98225.16;5050485;28;20228;-25
2024/02/20 03:16:30;;;;;;;1.53;1.43;;;;;;;19.47;53.83;98220.06;5051711;28;20247;-25
2024/02/20 03:18:57;;;;;;;1.70;1.40;;;;;;;19.46;53.93;98218.31;5037892;28;20217;-25
2024/02/20 03:21:24;;;;;;;1.80;1.70;;;;;;;19.46;54.04;98225.97;5050992;28;20228;-29
2024/02/20 03:23:51;;;;;;;1.53;1.43;;;;;;;19.47;54.03;98231.91;5038578;28;20196;-25
2024/02/20 03:26:18;;;;;;;1.50;1.40;;;;;;;19.45;54.07;98229.28;5045633;28;20666;-25
2024/02/20 03:28:45;;;;;;;1.70;1.60;;;;;;;19.46;53.82;98228.50;5050968;28;20201;-25
2024/02/20 03:31:13;;;;;;;1.50;1.40;;;;;;;19.44;53.92;98225.00;5044054;28;20208;-26
2024/02/20 03:33:40;;;;;;;1.60;1.50;;;;;;;19.46;53.96;98236.16;5048481;28;20205;-27
2024/02/20 03:36:07;;;;;;;1.40;1.30;;;;;;;19.47;54.03;98232.81;5051587;28;20197;-25
2024/02/20 03:38:34;;;;;;;1.50;1.40;;;;;;;19.47;53.90;98240.44;5044303;28;20223;-25
2024/02/20 03:41:00;;;;;;;1.20;1.10;;;;;;;19.46;53.98;98248.03;5047898;28;20611;-25
2024/02/20 03:43:28;;;;;;;1.70;1.50;;;;;;;19.46;53.96;98245.47;5051739;28;20212;-27
2024/02/20 03:45:55;;;;;;;1.60;1.50;;;;;;;19.46;53.78;98250.56;5051496;28;20220;-25
2024/02/20 03:48:21;;;;;;;1.40;1.30;;;;;;;19.47;53.94;98252.31;5048039;28;20203;-25
2024/02/20 03:50:48;;;;;;;1.40;1.30;;;;;;;19.48;53.78;98262.59;5051203;28;20208;-27
2024/02/20 03:53:15;;;;;;;1.37;1.27;;;;;;;19.46;53.97;98253.13;5051899;28;20200;-25
2024/02/20 03:55:42;;;;;;;1.30;1.20;;;;;;;19.46;53.98;98253.13;5050968;28;20216;-29
2024/02/20 03:58:08;;;;;;;1.20;1.20;;;;;;;19.46;53.89;98248.91;5040106;28;20198;-26
2024/02/20 04:00:35;;;;;;;2.33;1.50;;;;;;;19.47;53.89;98263.41;5043930;28;20738;-28
2024/02/20 04:03:02;;;;;;;1.33;1.23;;;;;;;19.47;53.85;98260.84;5049329;28;20220;-25
2024/02/20 04:05:28;;;;;;;1.60;1.50;;;;;;;19.48;53.97;98270.22;5047861;28;20225;-25
2024/02/20 04:07:55;;;;;;;1.60;1.50;;;;;;;19.48;53.79;98272.78;5045366;28;20534;-31
2024/02/20 04:10:21;;;;;;;1.57;1.40;;;;;;;19.47;53.81;98271.03;5051372;28;20200;-26
2024/02/20 04:12:48;;;;;;;1.40;1.30;;;;;;;19.48;53.83;98270.22;5050895;28;20201;-25
2024/02/20 04:15:15;;;;;;;1.50;1.40;;;;;;;19.46;53.65;98271.84;5040438;28;20313;-25
2024/02/20 04:17:44;;;;;;;1.50;1.40;;;;;;;19.42;53.70;98263.97;5045791;28;21021;-25
2024/02/20 04:20:11;;;;;;;1.80;1.40;;;;;;;19.48;53.97;98272.78;5048540;28;20687;-25
2024/02/20 04:22:38;;;;;;;1.53;1.43;;;;;;;19.47;53.88;98276.13;5051062;28;20224;-25
2024/02/20 04:25:06;;;;;;;1.70;1.60;;;;;;;19.48;53.95;98271.94;5046034;28;20212;-25
2024/02/20 04:27:33;;;;;;;1.50;1.40;;;;;;;19.46;53.80;98279.50;5048756;28;20284;-25
2024/02/20 04:29:59;;;;;;;1.40;1.30;;;;;;;19.48;53.94;98277.88;5048299;28;20201;-25
2024/02/20 04:32:26;;;;;;;1.40;1.30;;;;;;;19.48;53.99;98285.53;5050162;28;20193;-27
2024/02/20 04:34:53;;;;;;;1.40;1.30;;;;;;;19.48;53.95;98277.88;5045326;28;20239;-25
2024/02/20 04:37:20;;;;;;;1.50;1.40;;;;;;;19.47;53.88;98281.25;5050288;28;20201;-25
2024/02/20 04:39:47;;;;;;;1.50;1.40;;;;;;;19.48;53.51;98288.06;5048285;28;20301;-25
2024/02/20 04:42:14;;;;;;;1.53;1.43;;;;;;;19.49;53.73;98291.50;5042873;28;20252;-25
2024/02/20 04:44:40;;;;;;;1.27;1.20;;;;;;;19.49;53.65;98294.94;5041080;28;20343;-25
2024/02/20 04:47:07;;;;;;;1.47;1.37;;;;;;;19.47;53.63;98295.66;5050447;28;20270;-25
2024/02/20 04:49:33;;;;;;;1.43;1.33;;;;;;;19.47;53.96;98299.09;5046835;28;20672;-25
2024/02/20 04:52:00;;;;;;;1.53;1.40;;;;;;;19.48;53.83;98305.91;5042285;28;20576;-25
2024/02/20 04:54:27;;;;;;;1.50;1.40;;;;;;;19.49;54.13;98314.44;5047038;28;20231;-29
2024/02/20 04:56:53;;;;;;;1.40;1.30;;;;;;;19.46;53.95;98311.75;5051061;28;20205;-26
2024/02/20 04:59:21;;;;;;;1.50;1.40;;;;;;;19.46;54.10;98311.75;5048098;28;20225;-25
2024/02/20 05:01:48;;;;;;;1.73;1.63;;;;;;;19.45;54.14;98304.91;5041947;28;20220;-25
2024/02/20 05:04:15;;;;;;;1.40;1.30;;;;;;;19.44;53.94;98304.03;5051060;28;20764;-26
2024/02/20 05:06:42;;;;;;;1.40;1.30;;;;;;;19.38;54.05;98292.66;5040218;28;20589;-25
2024/02/20 05:09:09;;;;;;;1.43;1.33;;;;;;;19.45;53.91;98304.91;5050226;28;20208;-25
2024/02/20 05:11:36;;;;;;;1.40;1.30;;;;;;;19.45;54.07;98303.22;5040885;28;20750;-25
2024/02/20 05:14:03;;;;;;;1.33;1.23;;;;;;;19.45;53.92;98310.00;5048658;28;20240;-25
2024/02/20 05:16:30;;;;;;;1.53;1.43;;;;;;;19.45;53.93;98326.16;5049278;28;20203;-25
2024/02/20 05:18:56;;;;;;;1.30;1.20;;;;;;;19.46;54.16;98327.06;5041978;28;20561;-25
2024/02/20 05:21:23;;;;;;;1.60;1.50;;;;;;;19.45;54.11;98332.97;5042915;28;20284;-25
2024/02/20 05:23:49;;;;;;;1.67;1.40;;;;;;;19.45;53.94;98332.97;5049605;28;20276;-26
2024/02/20 05:26:16;;;;;;;1.57;1.47;;;;;;;19.41;54.08;98337.00;5048556;28;20573;-29
2024/02/20 05:28:43;;;;;;;3.00;1.40;;;;;;;19.44;54.09;98344.81;5048503;28;20240;-25
2024/02/20 05:31:29;;;;;;;1.60;1.50;;;;;;;19.44;54.15;98341.38;5044150;28;20684;-25
2024/02/20 05:33:59;;;;;;;1.50;1.37;;;;;;;19.44;54.09;98343.94;5044024;28;20208;-25
2024/02/20 05:36:29;;;;;;;1.30;1.20;;;;;;;19.44;54.02;98343.94;5052194;28;20201;-25
2024/02/20 05:39:00;;;;;;;1.50;1.40;;;;;;;19.44;54.36;98357.56;5041710;28;20259;-25
2024/02/20 05:41:28;;;;;;;1.37;1.30;;;;;;;19.44;54.24;98360.13;5054018;28;20288;-27
2024/02/20 05:43:57;;;;;;;1.33;1.23;;;;;;;19.44;54.01;98346.47;5049502;28;20253;-25
2024/02/20 05:46:28;;;;;;;1.17;1.03;;;;;;;19.44;54.20;98347.38;5052588;28;20197;-25
2024/02/20 05:48:54;;;;;;;1.40;1.30;;;;;;;19.45;53.67;98353.34;5053946;28;20205;-25
2024/02/20 05:51:23;;;;;;;1.63;1.33;;;;;;;19.44;54.00;98355.00;5052947;28;20280;-28
2024/02/20 05:53:50;;;;;;;1.60;1.50;;;;;;;19.47;54.15;98356.81;5040680;28;20198;-25
2024/02/20 05:56:17;;;;;;;1.63;1.50;;;;;;;19.46;54.22;98361.06;5044422;28;20633;-25
2024/02/20 05:58:43;;;;;;;1.67;1.57;;;;;;;19.43;53.73;98366.03;5046137;28;20202;-25
2024/02/20 06:01:11;;;;;;;3.27;1.60;;;;;;;19.47;53.99;98372.13;5053405;28;20278;-25
2024/02/20 06:03:38;;;;;;;2.20;1.83;;;;;;;19.48;53.38;98377.31;5046458;28;20221;-26
2024/02/20 06:06:06;;;;;;;2.83;1.87;;;;;;;19.48;53.04;98382.41;5047590;28;20209;-25
2024/02/20 06:08:34;;;;;;;2.40;2.10;;;;;;;19.47;52.68;98379.78;5053621;28;20370;-25
2024/02/20 06:11:00;;;;;;;2.77;2.00;;;;;;;19.47;52.70;98388.31;5047509;28;20644;-25
2024/02/20 06:13:27;;;;;;;4.30;1.90;;;;;;;19.48;52.85;98390.06;5043203;28;20576;-25
2024/02/20 06:15:54;;;;;;;2.63;1.70;;;;;;;19.47;52.78;98397.63;5048990;28;20256;-28
2024/02/20 06:18:20;;;;;;;4.13;1.90;;;;;;;19.47;53.10;98389.97;5049673;28;20290;-25
2024/02/20 06:20:47;;;;;;;2.27;1.83;;;;;;;19.47;53.00;98398.50;5049401;28;20236;-25
2024/02/20 06:23:14;;;;;;;2.40;2.00;;;;;;;19.47;53.35;98395.97;5051238;28;20627;-26
2024/02/20 06:25:42;;;;;;;1.87;1.63;;;;;;;19.48;52.96;98400.25;5042834;28;20225;-26
2024/02/20 06:28:09;;;;;;;2.73;2.27;;;;;;;19.48;53.02;98400.25;5052325;28;20656;-25
2024/02/20 06:30:36;;;;;;;3.20;1.83;;;;;;;19.49;52.95;98402.03;5051620;28;20204;-25
2024/02/20 06:33:03;;;;;;;2.10;1.90;;;;;;;19.50;53.13;98402.88;5053578;28;20239;-25
2024/02/20 06:35:30;;;;;;;2.50;2.20;;;;;;;19.51;53.47;98399.56;5051401;28;20219;-25
2024/02/20 06:37:57;;;;;;;2.90;1.90;;;;;;;19.52;53.04;98411.50;5046841;28;20243;-25
2024/02/20 06:40:23;;;;;;;3.57;2.17;;;;;;;19.51;51.12;98420.81;5038433;28;20637;-26
2024/02/20 06:42:50;;;;;;;4.77;2.47;;;;;;;19.49;50.88;98416.44;5050955;28;20734;-25
2024/02/20 06:45:17;;;;;;;3.80;2.80;;;;;;;19.47;50.55;98421.44;5048847;28;20220;-25
2024/02/20 06:47:43;;;;;;;6.03;3.30;;;;;;;19.47;49.82;98430.75;5050668;28;20201;-25
2024/02/20 06:50:12;;;;;;;5.27;3.43;;;;;;;19.46;49.43;98427.34;5051563;28;20203;-25
2024/02/20 06:52:40;;;;;;;5.83;3.67;;;;;;;19.47;49.02;98434.19;5050085;28;20284;-26
2024/02/20 06:55:08;;;;;;;6.67;3.57;;;;;;;19.46;49.16;98447.75;5045584;28;20240;-25
2024/02/20 06:57:37;;;;;;;5.63;3.30;;;;;;;19.45;50.01;98435.78;5047168;28;20302;-25
2024/02/20 07:00:04;;;;;;;5.53;3.53;;;;;;;19.44;50.49;98446.78;5047875;28;20204;-25
2024/02/20 07:02:31;;;;;;;3.67;3.10;;;;;;;19.44;50.91;98444.25;5051379;28;20225;-25
2024/02/20 07:04:58;;;;;;;4.30;2.97;;;;;;;19.44;51.11;98444.25;5053343;28;20256;-25
2024/02/20 07:07:24;;;;;;;4.33;3.10;;;;;;;19.45;51.51;98447.69;5044480;28;20204;-27
2024/02/20 07:09:51;;;;;;;5.10;3.40;;;;;;;19.45;51.69;98455.31;5044642;28;20201;-25
2024/02/20 07:12:18;;;;;;;3.73;3.03;;;;;;;19.44;51.84;98462.09;5050950;28;20223;-25
2024/02/20 07:14:44;;;;;;;4.53;2.87;;;;;;;19.44;51.91;98462.09;5049445;28;20251;-25
2024/02/20 07:17:11;;;;;;;4.10;3.03;;;;;;;19.45;51.95;98465.53;5032675;28;20213;-27
2024/02/20 07:19:37;;;;;;;3.60;2.70;;;;;;;19.45;52.05;98465.53;5040524;28;20205;-25
2024/02/20 07:22:04;;;;;;;5.57;3.17;;;;;;;19.45;52.15;98468.06;5041406;28;20233;-25
2024/02/20 07:24:31;;;;;;;3.73;2.80;;;;;;;19.45;52.06;98471.47;5045537;28;20271;-28
2024/02/20 07:26:57;;;;;;;4.00;2.90;;;;;;;19.44;51.98;98466.28;5042505;28;20247;-25
2024/02/20 07:29:24;;;;;;;3.13;2.40;;;;;;;19.39;52.13;98460.97;5044996;28;20297;-25
2024/02/20 07:31:51;;;;;;;2.47;2.27;;;;;;;19.48;52.10;98471.63;5042048;28;20200;-29
2024/02/20 07:34:17;;;;;;;4.17;2.70;;;;;;;19.49;51.88;98473.41;5039520;28;20240;-25
2024/02/20 07:36:48;;;;;;;3.00;2.60;;;;;;;19.50;52.23;98471.72;5043651;28;20228;-28
2024/02/20 07:39:15;;;;;;;2.40;2.20;;;;;;;19.51;52.21;98478.59;5042315;28;20204;-25
2024/02/20 07:41:41;;;;;;;2.93;2.40;;;;;;;19.45;52.17;98470.63;5042202;28;20299;-25
2024/02/20 07:44:08;;;;;;;6.47;2.67;;;;;;;19.52;52.32;98482.88;5039815;28;20755;-28
2024/02/20 07:46:34;;;;;;;3.57;2.40;;;;;;;19.50;52.21;98482.78;5037463;28;20236;-28
2024/02/20 07:49:01;;;;;;;4.27;2.53;;;;;;;19.51;51.89;98483.69;5039205;28;20219;-25
2024/02/20 07:51:29;;;;;;;4.97;2.77;;;;;;;19.51;52.38;98486.22;5044518;28;20274;-27
2024/02/20 07:53:56;;;;;;;2.93;2.50;;;;;;;19.51;52.37;98493.88;5045528;28;20279;-26
2024/02/20 07:56:26;;;;;;;4.87;2.37;;;;;;;19.51;52.34;98494.75;5040151;28;20667;-28
2024/02/20 07:58:53;;;;;;;3.57;2.70;;;;;;;19.50;52.29;98498.09;5042856;28;20300;-33
2024/02/20 08:01:20;;;;;;;2.60;2.40;;;;;;;19.50;52.52;98495.53;5042001;28;20204;-25
2024/02/20 08:03:49;;;;;;;3.30;2.33;;;;;;;19.51;52.52;98504.09;5045789;28;20256;-27
2024/02/20 08:06:16;;;;;;;4.47;2.30;;;;;;;19.50;52.56;98497.22;5039608;28;20236;-27
2024/02/20 08:08:42;;;;;;;3.87;2.40;;;;;;;19.51;52.59;98499.84;5045903;28;20656;-25
2024/02/20 08:11:09;;;;;;;4.00;2.50;;;;;;;19.50;52.67;98503.19;5040949;28;20201;-28
2024/02/20 08:13:39;;;;;;;3.87;2.33;;;;;;;19.51;52.39;98504.94;5045625;28;20201;-26
2024/02/20 08:16:05;;;;;;;3.03;2.30;;;;;;;19.52;52.45;98503.28;5019488;28;20201;-29
2024/02/20 08:18:32;;;;;;;3.10;2.33;;;;;;;19.52;52.22;98514.34;5044065;28;20684;-26
2024/02/20 08:20:59;;;;;;;2.50;2.30;;;;;;;19.54;52.42;98517.00;5045784;28;20209;-27
2024/02/20 08:23:25;;;;;;;3.03;2.40;;;;;;;19.55;52.51;98517.06;5046112;28;20253;-25
2024/02/20 08:25:52;;;;;;;2.43;2.00;;;;;;;19.54;52.60;98514.44;5037850;28;20645;-25
2024/02/20 08:28:19;;;;;;;2.40;2.20;;;;;;;19.54;52.50;98520.41;5044734;28;20201;-25
2024/02/20 08:30:45;;;;;;;3.03;2.43;;;;;;;19.54;52.54;98524.63;5044945;28;20236;-25
2024/02/20 08:33:12;;;;;;;2.00;1.80;;;;;;;19.53;52.50;98518.66;5042761;28;20217;-29
2024/02/20 08:35:39;;;;;;;3.17;2.10;;;;;;;19.54;52.83;98522.09;5046866;28;20317;-28
2024/02/20 08:38:07;;;;;;;3.70;2.20;;;;;;;19.53;52.58;98522.88;5046000;28;20237;-25
2024/02/20 08:40:34;;;;;;;4.67;2.00;;;;;;;19.53;52.58;98522.88;5042492;28;20258;-25
2024/02/20 08:43:00;;;;;;;3.43;2.40;;;;;;;19.53;52.62;98525.41;5045159;28;20242;-34
2024/02/20 08:45:27;;;;;;;2.13;1.90;;;;;;;19.53;52.78;98527.97;5047621;28;20225;-31
2024/02/20 08:47:54;;;;;;;2.20;1.90;;;;;;;19.53;52.61;98538.16;5044666;28;20212;-25
2024/02/20 08:50:21;;;;;;;2.90;2.07;;;;;;;19.53;52.67;98527.97;5040108;28;20209;-25
2024/02/20 08:52:48;;;;;;;2.20;2.00;;;;;;;19.54;52.76;98529.75;5039596;28;20296;-25
2024/02/20 08:55:14;;;;;;;2.10;1.90;;;;;;;19.54;52.74;98524.63;5046016;28;20235;-26
2024/02/20 08:57:41;;;;;;;1.83;1.60;;;;;;;19.54;52.73;98525.50;5045523;28;20247;-26
2024/02/20 09:00:11;;;;;;;2.23;1.97;;;;;;;19.54;52.50;98530.59;5041679;28;20237;-25
2024/02/20 09:02:41;;;;;;;2.43;2.10;;;;;;;19.55;52.56;98531.47;5037148;28;20193;-28
2024/02/20 09:05:10;;;;;;;2.47;2.10;;;;;;;19.56;52.57;98535.78;5045081;28;20229;-31
2024/02/20 09:07:38;;;;;;;2.10;1.90;;;;;;;19.56;52.59;98534.13;5043309;28;20205;-29
2024/02/20 09:10:05;;;;;;;2.30;1.97;;;;;;;19.55;52.66;98534.91;5043385;28;20296;-25
2024/02/20 09:12:33;;;;;;;2.13;1.93;;;;;;;19.55;52.58;98531.47;5043540;28;20204;-27
2024/02/20 09:15:02;;;;;;;2.30;2.00;;;;;;;19.55;52.73;98539.13;5038443;28;20472;-33
2024/02/20 09:17:29;;;;;;;2.43;1.83;;;;;;;19.53;52.87;98539.06;5043481;28;20583;-29
2024/02/20 09:19:56;;;;;;;3.90;1.90;;;;;;;19.54;52.92;98539.94;5041532;28;20236;-29
2024/02/20 09:22:26;;;;;;;2.40;1.97;;;;;;;19.53;52.72;98541.59;5042199;28;20211;-27
2024/02/20 09:24:53;;;;;;;3.07;1.73;;;;;;;19.45;52.75;98521.59;5043017;28;20225;-25
2024/02/20 09:27:20;;;;;;;2.47;1.93;;;;;;;19.53;52.83;98541.59;5043948;28;20675;-26
2024/02/20 09:29:47;;;;;;;2.20;2.00;;;;;;;19.53;52.72;98553.47;5038134;28;20209;-29
2024/02/20 09:32:14;;;;;;;2.37;1.70;;;;;;;19.54;52.85;98552.69;5045857;28;20209;-29
2024/02/20 09:34:43;;;;;;;2.00;1.80;;;;;;;19.52;52.72;98544.97;5046566;28;20282;-27
2024/02/20 09:37:10;;;;;;;2.07;1.80;;;;;;;19.53;52.67;98553.47;5043449;28;20209;-25
2024/02/20 09:39:37;;;;;;;2.43;2.00;;;;;;;19.54;52.80;98563.75;5036349;28;20629;-26
2024/02/20 09:42:08;;;;;;;2.53;1.80;;;;;;;19.54;52.76;98563.75;5047168;28;20205;-25
2024/02/20 09:44:36;;;;;;;2.50;1.83;;;;;;;19.55;52.61;98568.06;5046851;28;20267;-31
2024/02/20 09:47:03;;;;;;;3.67;2.10;;;;;;;19.54;52.57;98566.28;5028318;28;20258;-27
2024/02/20 09:49:29;;;;;;;1.80;1.50;;;;;;;19.55;52.65;98568.06;5045377;28;20204;-27
2024/02/20 09:51:58;;;;;;;2.23;1.90;;;;;;;19.57;52.74;98583.44;5021497;28;20209;-25
2024/02/20 09:54:24;;;;;;;2.40;1.87;;;;;;;19.57;52.81;98573.25;5044758;28;20274;-25
2024/02/20 09:56:51;;;;;;;1.97;1.70;;;;;;;19.55;52.07;98583.38;5043323;28;20671;-26
2024/02/20 09:59:18;;;;;;;1.83;1.73;;;;;;;19.54;52.66;98585.84;5032272;28;20209;-25
2024/02/20 10:01:45;;;;;;;2.67;1.93;;;;;;;19.53;52.72;98584.06;5040088;28;20215;-27
2024/02/20 10:04:11;;;;;;;2.17;1.97;;;;;;;19.54;52.79;98585.84;5037299;28;20221;-34
2024/02/20 10:06:38;;;;;;;2.33;1.70;;;;;;;19.49;52.71;98580.50;5038409;28;20209;-25
2024/02/20 10:09:05;;;;;;;2.13;1.87;;;;;;;19.53;52.46;98587.50;5038940;28;20198;-27
2024/02/20 10:11:37;;;;;;;1.80;1.70;;;;;;;19.53;52.79;98591.72;5046745;28;20201;-25
2024/02/20 10:14:04;;;;;;;2.17;1.70;;;;;;;19.51;52.97;98583.97;5045224;28;20213;-27
2024/02/20 10:16:30;;;;;;;3.30;2.03;;;;;;;19.49;52.87;98587.25;5043705;28;20263;-26
2024/02/20 10:18:57;;;;;;;1.77;1.60;;;;;;;19.53;52.64;98594.25;5044704;28;20639;-25
2024/02/20 10:21:24;;;;;;;2.60;2.03;;;;;;;19.53;52.59;98592.59;5048911;28;20390;-30
2024/02/20 10:24:04;;;;;;;1.77;1.60;;;;;;;19.54;52.50;98589.25;5042184;28;20576;-25
2024/02/20 10:26:37;;;;;;;3.30;2.13;;;;;;;19.56;52.69;98594.41;5040379;28;20229;-26
2024/02/20 10:29:04;;;;;;;1.70;1.60;;;;;;;19.55;52.72;98593.56;5044812;28;20201;-26
2024/02/20 10:31:31;;;;;;;2.00;1.80;;;;;;;19.57;52.59;98593.66;5039240;28;20244;-27
2024/02/20 10:33:58;;;;;;;1.93;1.70;;;;;;;19.56;52.42;98596.97;5047529;28;20669;-25
2024/02/20 10:36:38;;;;;;;2.00;1.80;;;;;;;19.56;53.25;98596.97;5045585;28;20209;-25
2024/02/20 10:39:05;;;;;;;2.00;1.70;;;;;;;19.54;52.87;98593.47;5045728;28;20591;-27
2024/02/20 10:41:32;;;;;;;2.77;1.87;;;;;;;19.54;52.88;98591.78;5043849;28;20237;-25
2024/02/20 10:43:59;;;;;;;1.93;1.73;;;;;;;19.53;52.83;98589.16;5046512;28;20623;-27
2024/02/20 10:46:26;;;;;;;1.90;1.80;;;;;;;19.54;52.84;98590.94;5047119;28;20205;-27
2024/02/20 10:48:58;;;;;;;1.70;1.60;;;;;;;19.54;52.76;98586.69;5047681;28;20259;-30
2024/02/20 10:51:28;;;;;;;1.70;1.60;;;;;;;19.52;52.71;98589.97;5039831;28;20646;-25
2024/02/20 10:53:55;;;;;;;2.37;1.60;;;;;;;19.53;52.67;98589.16;5044141;28;20224;-27
2024/02/20 10:56:22;;;;;;;1.97;1.67;;;;;;;19.54;52.78;98596.03;5047156;28;20205;-29
2024/02/20 10:58:49;;;;;;;1.60;1.50;;;;;;;19.53;52.84;98586.59;5037346;28;20204;-25
2024/02/20 11:01:16;;;;;;;1.53;1.40;;;;;;;19.53;52.67;98584.94;5047562;28;20209;-31
2024/02/20 11:03:42;;;;;;;1.73;1.63;;;;;;;19.53;52.51;98586.59;5048424;28;20222;-25
2024/02/20 11:06:24;;;;;;;2.00;1.80;;;;;;;19.53;52.60;98582.41;5031433;28;20204;-28
2024/02/20 11:08:51;;;;;;;2.53;2.00;;;;;;;19.52;52.55;98583.19;5047478;28;20208;-25
2024/02/20 11:11:18;;;;;;;1.90;1.70;;;;;;;19.57;52.79;98591.09;5033849;28;20573;-27
2024/02/20 11:13:45;;;;;;;2.27;1.90;;;;;;;19.56;52.46;98585.09;5048883;28;20197;-26
2024/02/20 11:16:13;;;;;;;2.43;1.80;;;;;;;19.55;52.48;98580.81;5024774;28;20449;-28
2024/02/20 11:18:50;;;;;;;1.80;1.60;;;;;;;19.57;52.77;98573.25;5049649;28;20215;-25
2024/02/20 11:21:27;;;;;;;2.77;1.90;;;;;;;19.56;52.77;98574.03;5048179;28;20200;-26
2024/02/20 11:23:54;;;;;;;4.20;2.30;;;;;;;19.57;52.83;98588.56;5040204;28;20318;-28
2024/02/20 11:26:27;;;;;;;3.10;2.17;;;;;;;19.54;52.98;98578.19;5038404;28;20295;-27
2024/02/20 11:28:55;;;;;;;2.57;2.00;;;;;;;19.53;52.85;98586.59;5046075;28;20204;-31
2024/02/20 11:31:28;;;;;;;2.73;2.10;;;;;;;19.52;52.93;98585.75;5050222;28;20251;-25
2024/02/20 11:33:55;;;;;;;2.20;1.80;;;;;;;19.53;52.80;98589.16;5043259;28;20304;-25